Time;durP1;ratioP1;P1;durP2;ratioP2;P2;SDS_P1;SDS_P2;PMS_P1;PMS_P2;Temp;Humidity;BMP_temperature;BMP_pressure;BME280_temperature;BME280_humidity;BME280_pressure;Samples;Min_cycle;Max_cycle;Signal;HPM_P1;HPM_P2
2023/11/25 00:00:57;;;;;;;6.90;2.90;;;;;;;2.05;75.17;98434.29;108073;1254;71211;-66
2023/11/25 00:03:25;;;;;;;7.20;3.00;;;;;;;1.99;75.54;98432.13;108022;1257;61016;-67
2023/11/25 00:05:54;;;;;;;5.80;2.90;;;;;;;1.94;75.83;98429.95;108088;1254;60302;-65
2023/11/25 00:08:22;;;;;;;7.00;3.10;;;;;;;1.92;76.31;98422.14;108122;1254;72015;-65
2023/11/25 00:10:50;;;;;;;6.70;2.60;;;;;;;1.86;76.63;98417.25;108091;1254;70461;-65
2023/11/25 00:13:18;;;;;;;8.30;3.30;;;;;;;1.80;77.12;98417.73;108065;1254;71675;-65
2023/11/25 00:15:45;;;;;;;6.60;3.20;;;;;;;1.75;77.98;98417.64;108065;1254;60872;-66
2023/11/25 00:18:13;;;;;;;6.70;3.00;;;;;;;1.73;78.69;98426.30;108053;1254;60307;-65
2023/11/25 00:20:41;;;;;;;7.40;3.00;;;;;;;1.68;79.45;98425.42;108135;1254;71880;-65
2023/11/25 00:23:08;;;;;;;6.70;2.90;;;;;;;1.66;80.01;98425.52;108077;1254;72928;-65
2023/11/25 00:25:36;;;;;;;8.70;2.90;;;;;;;1.63;80.77;98424.17;108015;1254;72712;-67
2023/11/25 00:28:09;;;;;;;8.60;3.10;;;;;;;1.62;81.01;98427.70;108104;1253;60912;-65
2023/11/25 00:30:38;;;;;;;8.80;3.40;;;;;;;1.60;81.08;98432.41;108141;1254;60606;-65
2023/11/25 00:33:06;;;;;;;8.10;3.20;;;;;;;1.58;81.53;98438.98;108073;1259;73874;-65
2023/11/25 00:35:34;;;;;;;7.70;3.60;;;;;;;1.57;81.69;98441.02;108149;1253;71985;-65
2023/11/25 00:38:02;;;;;;;6.90;2.90;;;;;;;1.54;81.73;98442.51;108187;1254;72756;-65
2023/11/25 00:40:29;;;;;;;8.80;2.90;;;;;;;1.53;81.92;98438.61;108124;1253;60954;-65
2023/11/25 00:42:57;;;;;;;7.60;3.40;;;;;;;1.50;81.88;98441.21;108081;1254;59247;-65
2023/11/25 00:45:26;;;;;;;8.20;3.50;;;;;;;1.47;82.24;98442.13;107830;1253;73846;-65
2023/11/25 00:47:56;;;;;;;6.90;3.40;;;;;;;1.43;82.50;98443.73;108195;1253;72515;-65
2023/11/25 00:50:24;;;;;;;7.50;3.40;;;;;;;1.40;82.52;98443.42;108090;1254;71343;-66
2023/11/25 00:52:53;;;;;;;9.00;3.90;;;;;;;1.36;83.21;98451.04;108098;1254;60428;-65
2023/11/25 00:55:21;;;;;;;8.30;3.60;;;;;;;1.35;83.46;98455.96;108162;1253;60338;-66
2023/11/25 00:57:49;;;;;;;8.10;3.70;;;;;;;1.34;83.98;98461.05;108105;1254;72209;-67
2023/11/25 01:00:17;;;;;;;6.90;3.60;;;;;;;1.32;84.02;98463.89;107868;1256;70762;-66
2023/11/25 01:02:44;;;;;;;10.00;4.00;;;;;;;1.32;84.17;98465.20;108006;1257;74905;-65
2023/11/25 01:05:13;;;;;;;8.20;3.20;;;;;;;1.31;84.16;98464.23;108165;1257;61770;-65
2023/11/25 01:07:41;;;;;;;8.00;3.80;;;;;;;1.31;84.33;98463.55;108148;1253;60342;-66
2023/11/25 01:10:09;;;;;;;9.30;3.70;;;;;;;1.30;84.62;98464.80;107993;1254;73844;-66
2023/11/25 01:12:38;;;;;;;8.20;3.70;;;;;;;1.30;84.80;98460.70;108226;1253;71980;-67
2023/11/25 01:15:07;;;;;;;8.70;3.40;;;;;;;1.29;84.64;98455.75;108202;1254;72927;-66
2023/11/25 01:17:35;;;;;;;7.70;3.50;;;;;;;1.27;84.75;98445.67;108167;1253;60280;-66
2023/11/25 01:20:05;;;;;;;9.10;3.50;;;;;;;1.27;85.04;98442.05;108189;1252;60335;-66
2023/11/25 01:22:35;;;;;;;6.90;3.30;;;;;;;1.26;85.18;98439.14;108144;1254;72616;-66
2023/11/25 01:25:36;;;;;;;7.10;3.50;;;;;;;1.24;85.10;98440.33;107974;1254;75111;-67
2023/11/25 01:28:05;;;;;;;8.60;3.40;;;;;;;1.20;85.22;98435.61;108027;1253;72757;-68
2023/11/25 01:30:33;;;;;;;6.90;3.00;;;;;;;1.16;85.32;98440.41;108154;1254;60557;-66
2023/11/25 01:33:02;;;;;;;7.80;3.40;;;;;;;1.11;85.47;98439.38;108211;1254;60554;-66
2023/11/25 01:35:30;;;;;;;8.00;3.70;;;;;;;1.09;85.85;98439.93;108184;1254;73889;-65
2023/11/25 01:37:57;;;;;;;9.80;3.70;;;;;;;1.07;86.19;98439.23;108124;1253;72505;-67
2023/11/25 01:40:25;;;;;;;6.50;3.30;;;;;;;1.05;86.40;98439.92;108196;1259;72778;-66
2023/11/25 01:42:57;;;;;;;10.30;3.70;;;;;;;1.02;86.52;98447.36;108122;1253;61027;-66
2023/11/25 01:45:26;;;;;;;8.10;3.80;;;;;;;1.00;86.82;98453.77;108006;1253;60898;-66
2023/11/25 01:47:54;;;;;;;7.70;3.50;;;;;;;0.97;87.32;98456.24;108225;1253;75954;-66
2023/11/25 01:50:22;;;;;;;7.80;3.30;;;;;;;0.95;87.53;98461.67;108154;1259;72739;-67
2023/11/25 01:52:50;;;;;;;6.10;3.50;;;;;;;0.93;88.58;98473.87;108003;1254;71073;-67
2023/11/25 01:55:18;;;;;;;9.20;3.50;;;;;;;0.91;89.36;98476.41;107943;1256;60342;-66
2023/11/25 01:57:46;;;;;;;6.90;3.50;;;;;;;0.90;89.78;98481.66;108140;1253;59289;-67
2023/11/25 02:00:14;;;;;;;7.00;3.60;;;;;;;0.89;89.88;98483.61;108007;1254;73905;-66
2023/11/25 02:02:42;;;;;;;9.10;3.60;;;;;;;0.88;90.24;98487.36;108162;1254;70465;-67
2023/11/25 02:05:10;;;;;;;7.10;3.50;;;;;;;0.86;90.81;98491.34;108049;1255;72711;-66
2023/11/25 02:07:39;;;;;;;8.10;3.90;;;;;;;0.85;91.30;98489.05;108045;1254;60356;-66
2023/11/25 02:10:10;;;;;;;7.40;3.60;;;;;;;0.85;91.47;98492.59;108070;1253;60492;-65
2023/11/25 02:12:40;;;;;;;6.40;4.00;;;;;;;0.84;91.97;98503.98;108048;1259;74068;-64
2023/11/25 02:15:11;;;;;;;9.50;4.60;;;;;;;0.83;92.22;98515.54;108094;1254;71876;-65
2023/11/25 02:17:40;;;;;;;9.30;4.30;;;;;;;0.82;92.63;98522.17;108107;1254;71498;-66
2023/11/25 02:20:10;;;;;;;9.00;5.30;;;;;;;0.80;92.65;98530.92;108132;1254;60409;-66
2023/11/25 02:22:38;;;;;;;11.10;4.40;;;;;;;0.77;92.92;98534.52;108032;1254;60326;-66
2023/11/25 02:25:07;;;;;;;11.60;5.10;;;;;;;0.75;93.29;98530.39;108175;1253;73439;-66
2023/11/25 02:27:35;;;;;;;10.70;4.60;;;;;;;0.76;93.96;98542.60;108154;1253;73070;-65
2023/11/25 02:30:06;;;;;;;7.40;4.10;;;;;;;0.79;94.70;98548.22;108034;1254;71785;-65
2023/11/25 02:32:34;;;;;;;13.70;4.40;;;;;;;0.86;95.06;98555.36;108104;1259;61175;-66
2023/11/25 02:35:01;;;;;;;8.80;3.90;;;;;;;0.94;95.33;98564.92;108165;1252;59411;-67
2023/11/25 02:37:30;;;;;;;7.90;3.80;;;;;;;1.00;95.52;98566.52;108113;1253;73014;-66
2023/11/25 02:39:58;;;;;;;7.80;3.80;;;;;;;1.06;95.09;98561.14;108122;1253;72736;-65
2023/11/25 02:42:26;;;;;;;7.70;3.70;;;;;;;1.12;95.02;98567.73;108056;1254;71519;-65
2023/11/25 02:44:53;;;;;;;8.60;3.50;;;;;;;1.18;94.54;98571.50;108170;1252;60323;-65
2023/11/25 02:47:23;;;;;;;6.50;3.70;;;;;;;1.26;93.73;98571.48;108167;1252;60418;-66
2023/11/25 02:49:51;;;;;;;6.90;3.20;;;;;;;1.33;93.09;98577.88;108156;1253;73880;-65
2023/11/25 02:52:18;;;;;;;7.80;3.70;;;;;;;1.37;92.11;98583.60;108115;1259;70398;-66
2023/11/25 02:54:49;;;;;;;9.80;3.40;;;;;;;1.39;91.21;98583.37;108165;1254;74512;-66
2023/11/25 02:57:19;;;;;;;7.50;3.80;;;;;;;1.41;90.49;98582.48;108182;1252;60511;-66
2023/11/25 02:59:47;;;;;;;11.80;3.80;;;;;;;1.40;89.68;98579.23;107994;1252;60385;-66
2023/11/25 03:02:15;;;;;;;7.00;3.40;;;;;;;1.40;88.99;98579.48;108068;1254;76166;-66
2023/11/25 03:04:46;;;;;;;7.20;4.10;;;;;;;1.38;88.22;98575.00;108022;1254;72736;-65
2023/11/25 03:07:15;;;;;;;10.10;3.50;;;;;;;1.38;87.50;98579.58;108117;1253;75273;-65
2023/11/25 03:09:43;;;;;;;8.60;3.90;;;;;;;1.38;87.24;98583.58;108145;1253;62893;-65
2023/11/25 03:12:10;;;;;;;8.10;3.90;;;;;;;1.39;86.96;98598.16;108138;1253;60408;-66
2023/11/25 03:14:38;;;;;;;6.50;3.80;;;;;;;1.39;86.47;98606.95;108195;1253;73794;-65
2023/11/25 03:17:06;;;;;;;7.50;3.90;;;;;;;1.38;86.05;98606.73;108065;1254;71474;-67
2023/11/25 03:19:35;;;;;;;8.20;4.40;;;;;;;1.37;85.26;98617.05;108101;1257;71461;-66
2023/11/25 03:22:03;;;;;;;11.10;4.60;;;;;;;1.35;84.63;98613.20;108029;1254;60418;-66
2023/11/25 03:24:30;;;;;;;7.40;3.90;;;;;;;1.33;84.35;98615.54;108145;1259;60155;-65
2023/11/25 03:26:58;;;;;;;7.40;3.60;;;;;;;1.28;83.87;98601.38;108194;1254;75161;-66
2023/11/25 03:29:26;;;;;;;7.30;3.80;;;;;;;1.24;83.79;98606.23;108171;1253;75571;-67
2023/11/25 03:31:54;;;;;;;8.80;4.20;;;;;;;1.21;83.58;98600.45;108183;1253;71096;-65
2023/11/25 03:34:22;;;;;;;8.70;4.50;;;;;;;1.19;83.91;98599.20;108133;1254;60411;-66
2023/11/25 03:36:49;;;;;;;12.50;6.20;;;;;;;1.17;83.64;98601.39;108131;1253;60303;-66
2023/11/25 03:39:17;;;;;;;9.70;5.00;;;;;;;1.13;83.78;98600.36;108019;1254;72887;-66
2023/11/25 03:41:45;;;;;;;7.50;4.10;;;;;;;1.10;83.55;98599.11;108155;1254;74471;-67
2023/11/25 03:44:12;;;;;;;9.80;4.60;;;;;;;1.05;83.67;98599.20;108073;1256;72496;-66
2023/11/25 03:46:41;;;;;;;8.40;4.30;;;;;;;1.00;83.95;98603.06;108163;1253;60364;-68
2023/11/25 03:49:10;;;;;;;7.10;3.90;;;;;;;0.92;84.07;98600.65;108122;1254;60289;-66
2023/11/25 03:51:37;;;;;;;9.00;4.20;;;;;;;0.86;84.33;98601.09;108062;1254;74771;-66
2023/11/25 03:54:05;;;;;;;8.90;3.90;;;;;;;0.81;84.92;98608.52;108151;1252;72529;-66
2023/11/25 03:56:32;;;;;;;8.40;3.80;;;;;;;0.77;85.15;98615.61;108222;1253;72371;-67
2023/11/25 03:59:00;;;;;;;8.00;4.10;;;;;;;0.74;85.50;98625.77;108116;1255;60338;-66
2023/11/25 04:01:28;;;;;;;10.40;4.40;;;;;;;0.72;85.99;98631.83;108121;1253;60323;-67
2023/11/25 04:03:56;;;;;;;8.50;4.40;;;;;;;0.68;86.47;98642.25;108125;1254;74029;-66
2023/11/25 04:06:25;;;;;;;8.40;4.20;;;;;;;0.66;86.54;98659.29;108057;1253;73124;-65
2023/11/25 04:08:53;;;;;;;11.50;4.80;;;;;;;0.63;86.95;98667.27;108148;1256;72726;-67
2023/11/25 04:11:21;;;;;;;9.00;4.20;;;;;;;0.61;87.25;98671.92;108130;1254;60473;-66
2023/11/25 04:13:48;;;;;;;8.80;4.30;;;;;;;0.62;87.70;98680.64;108097;1253;60355;-67
2023/11/25 04:16:17;;;;;;;8.80;4.70;;;;;;;0.63;87.99;98680.14;108071;1254;71950;-66
2023/11/25 04:18:47;;;;;;;9.50;4.60;;;;;;;0.65;88.39;98685.06;108140;1254;71464;-66
2023/11/25 04:21:15;;;;;;;9.00;3.80;;;;;;;0.68;88.57;98690.89;108120;1254;71403;-66
2023/11/25 04:23:43;;;;;;;8.10;4.10;;;;;;;0.68;89.05;98690.89;108134;1253;60821;-67
2023/11/25 04:26:11;;;;;;;9.80;4.30;;;;;;;0.67;89.14;98692.15;107895;1254;60352;-66
2023/11/25 04:28:39;;;;;;;9.20;3.90;;;;;;;0.68;89.38;98694.73;108073;1254;73855;-65
2023/11/25 04:31:07;;;;;;;7.50;4.40;;;;;;;0.67;89.69;98697.50;108092;1254;72462;-66
2023/11/25 04:33:35;;;;;;;8.30;4.50;;;;;;;0.65;89.77;98687.23;108115;1253;71655;-68
2023/11/25 04:36:03;;;;;;;9.70;4.60;;;;;;;0.63;89.79;98676.41;108081;1255;60046;-67
2023/11/25 04:38:31;;;;;;;9.00;4.70;;;;;;;0.59;90.03;98669.31;108135;1254;60225;-68
2023/11/25 04:40:58;;;;;;;10.20;4.60;;;;;;;0.55;90.22;98665.89;108149;1254;72645;-66
2023/11/25 04:43:26;;;;;;;9.10;4.70;;;;;;;0.53;90.66;98654.98;108155;1254;71668;-66
2023/11/25 04:45:54;;;;;;;11.80;4.40;;;;;;;0.51;90.77;98658.61;108020;1253;203939;-65
2023/11/25 04:48:21;;;;;;;11.90;4.90;;;;;;;0.50;91.11;98663.91;108130;1254;60951;-67
2023/11/25 04:50:49;;;;;;;9.00;4.90;;;;;;;0.47;91.36;98670.53;108139;1253;60225;-66
2023/11/25 04:53:17;;;;;;;9.10;4.20;;;;;;;0.40;91.38;98666.73;108045;1254;73918;-66
2023/11/25 04:55:44;;;;;;;9.60;4.60;;;;;;;0.34;91.29;98666.90;107981;1254;73387;-67
2023/11/25 04:58:12;;;;;;;11.40;6.00;;;;;;;0.27;91.72;98674.53;107999;1260;70403;-66
2023/11/25 05:00:40;;;;;;;10.30;5.20;;;;;;;0.19;91.72;98673.52;108008;1254;59895;-66
2023/11/25 05:03:07;;;;;;;11.00;5.80;;;;;;;0.12;91.92;98673.08;108117;1252;60294;-65
2023/11/25 05:05:35;;;;;;;13.40;5.50;;;;;;;0.08;92.29;98676.67;108073;1254;72478;-66
2023/11/25 05:08:04;;;;;;;9.40;4.80;;;;;;;0.04;92.28;98675.66;108081;1254;73079;-65
2023/11/25 05:10:34;;;;;;;12.60;5.70;;;;;;;0.00;92.27;98684.88;108005;1254;73042;-66
2023/11/25 05:13:36;;;;;;;10.50;5.70;;;;;;;-0.05;92.42;98689.61;108037;1256;60378;-66
2023/11/25 05:16:05;;;;;;;12.30;5.90;;;;;;;-0.07;92.40;98702.63;108109;1254;60454;-67
2023/11/25 05:18:32;;;;;;;12.50;7.20;;;;;;;-0.10;92.35;98721.73;108141;1253;74128;-67
2023/11/25 05:21:02;;;;;;;11.60;5.80;;;;;;;-0.12;92.62;98740.02;108062;1253;72699;-66
2023/11/25 05:23:29;;;;;;;13.80;6.40;;;;;;;-0.14;93.06;98753.98;108007;1254;71157;-65
2023/11/25 05:25:57;;;;;;;10.30;6.10;;;;;;;-0.15;93.14;98753.91;108030;1254;60353;-64
2023/11/25 05:28:25;;;;;;;10.10;6.10;;;;;;;-0.17;93.52;98742.15;108013;1254;62295;-65
2023/11/25 05:30:52;;;;;;;12.00;5.90;;;;;;;-0.18;93.75;98733.64;108161;1254;73858;-66
2023/11/25 05:33:20;;;;;;;13.80;6.60;;;;;;;-0.17;94.01;98726.93;108202;1254;71554;-66
2023/11/25 05:35:47;;;;;;;12.90;5.90;;;;;;;-0.19;94.19;98715.59;108186;1254;72680;-65
2023/11/25 05:38:17;;;;;;;10.00;6.10;;;;;;;-0.20;94.95;98711.51;108084;1254;60859;-65
2023/11/25 05:40:46;;;;;;;9.00;5.00;;;;;;;-0.20;95.76;98718.27;108058;1254;60317;-66
2023/11/25 05:43:16;;;;;;;10.70;6.40;;;;;;;-0.20;96.40;98722.05;108024;1254;73818;-66
2023/11/25 05:45:44;;;;;;;13.70;6.70;;;;;;;-0.18;97.50;98721.30;108005;1254;72702;-66
2023/11/25 05:48:14;;;;;;;15.00;7.50;;;;;;;-0.16;98.22;98726.38;108100;1259;73205;-66
2023/11/25 05:50:42;;;;;;;15.90;7.90;;;;;;;-0.14;98.51;98728.68;107988;1254;60527;-66
2023/11/25 05:53:11;;;;;;;11.80;6.90;;;;;;;-0.13;98.85;98724.46;108014;1254;60870;-66
2023/11/25 05:55:38;;;;;;;10.90;6.30;;;;;;;-0.10;99.26;98725.50;108038;1254;73840;-66
2023/11/25 05:58:06;;;;;;;12.60;6.50;;;;;;;-0.09;99.45;98724.11;108102;1254;72508;-66
2023/11/25 06:00:34;;;;;;;11.90;6.80;;;;;;;-0.06;99.91;98722.91;108084;1254;73631;-66
2023/11/25 06:03:02;;;;;;;13.10;6.90;;;;;;;-0.02;99.96;98724.04;108119;1254;63397;-66
2023/11/25 06:05:30;;;;;;;11.30;6.50;;;;;;;0.03;100.00;98727.98;108165;1253;60479;-65
2023/11/25 06:07:57;;;;;;;11.20;6.40;;;;;;;0.08;100.00;98726.02;108184;1254;73969;-65
2023/11/25 06:10:25;;;;;;;13.20;7.40;;;;;;;0.13;100.00;98721.77;108174;1253;71548;-65
2023/11/25 06:12:53;;;;;;;11.00;6.40;;;;;;;0.17;100.00;98722.47;108181;1253;70134;-65
2023/11/25 06:15:22;;;;;;;10.50;6.60;;;;;;;0.23;100.00;98732.34;108181;1254;60333;-66
2023/11/25 06:17:50;;;;;;;11.00;6.40;;;;;;;0.30;100.00;98738.88;108147;1254;60466;-65
2023/11/25 06:20:18;;;;;;;12.60;6.70;;;;;;;0.34;100.00;98744.27;108112;1254;72727;-67
2023/11/25 06:22:45;;;;;;;10.60;6.40;;;;;;;0.39;100.00;98736.95;108146;1253;71701;-68
2023/11/25 06:25:13;;;;;;;11.80;6.50;;;;;;;0.45;100.00;98735.02;108108;1255;70775;-66
2023/11/25 06:27:42;;;;;;;10.70;6.10;;;;;;;0.50;100.00;98716.45;108093;1256;60338;-66
2023/11/25 06:30:14;;;;;;;12.70;6.70;;;;;;;0.56;100.00;98696.79;108000;1253;60393;-66
2023/11/25 06:32:42;;;;;;;15.60;7.70;;;;;;;0.62;100.00;98695.89;108038;1254;72914;-66
2023/11/25 06:35:12;;;;;;;13.40;6.30;;;;;;;0.68;100.00;98694.48;108151;1254;70969;-66
2023/11/25 06:37:40;;;;;;;12.50;6.60;;;;;;;0.75;100.00;98692.27;108036;1256;71512;-67
2023/11/25 06:40:12;;;;;;;12.90;6.20;;;;;;;0.83;100.00;98702.11;108057;1253;61340;-67
2023/11/25 06:42:41;;;;;;;12.70;6.40;;;;;;;0.91;100.00;98705.61;108090;1253;60293;-64
2023/11/25 06:45:09;;;;;;;11.80;6.40;;;;;;;0.98;100.00;98715.18;108023;1253;73854;-65
2023/11/25 06:47:38;;;;;;;12.80;7.50;;;;;;;1.05;100.00;98713.55;108130;1254;72784;-66
2023/11/25 06:50:07;;;;;;;10.10;6.30;;;;;;;1.09;100.00;98715.63;108040;1254;71774;-66
2023/11/25 06:52:34;;;;;;;12.70;6.40;;;;;;;1.14;100.00;98723.32;108118;1253;61272;-67
2023/11/25 06:55:02;;;;;;;12.20;6.00;;;;;;;1.18;100.00;98730.85;108111;1254;60431;-66
2023/11/25 06:57:30;;;;;;;14.70;6.80;;;;;;;1.23;99.86;98742.59;108178;1253;74158;-65
2023/11/25 06:59:58;;;;;;;13.70;6.40;;;;;;;1.27;99.36;98750.34;108035;1253;75468;-66
2023/11/25 07:02:27;;;;;;;9.50;5.30;;;;;;;1.32;99.13;98752.46;108114;1254;73750;-66
2023/11/25 07:04:55;;;;;;;11.10;5.80;;;;;;;1.35;99.05;98759.76;108108;1254;60285;-66
2023/11/25 07:07:22;;;;;;;10.90;6.60;;;;;;;1.40;98.76;98760.63;108004;1254;61472;-66
2023/11/25 07:09:50;;;;;;;11.10;6.40;;;;;;;1.44;98.10;98759.48;107995;1254;73821;-66
2023/11/25 07:12:18;;;;;;;10.00;5.80;;;;;;;1.51;97.86;98763.88;107993;1252;71412;-66
2023/11/25 07:14:45;;;;;;;13.00;6.60;;;;;;;1.56;97.61;98767.59;108194;1253;72762;-66
2023/11/25 07:17:13;;;;;;;11.10;6.30;;;;;;;1.63;97.28;98772.42;108123;1259;60300;-68
2023/11/25 07:19:42;;;;;;;9.00;5.10;;;;;;;1.70;96.86;98772.16;108029;1254;60421;-66
2023/11/25 07:22:10;;;;;;;11.30;6.10;;;;;;;1.76;96.38;98780.71;108201;1254;74984;-66
2023/11/25 07:24:39;;;;;;;12.20;6.60;;;;;;;1.81;95.89;98787.50;108190;1253;73032;-67
2023/11/25 07:27:10;;;;;;;12.00;6.60;;;;;;;1.88;95.47;98785.66;108023;1254;72656;-65
2023/11/25 07:29:38;;;;;;;12.00;6.70;;;;;;;1.95;95.11;98793.08;108024;1257;60341;-65
2023/11/25 07:32:06;;;;;;;10.30;6.00;;;;;;;2.02;94.53;98794.15;108100;1254;60339;-65
2023/11/25 07:34:36;;;;;;;10.90;7.20;;;;;;;2.09;94.08;98800.25;108242;1253;73424;-67
2023/11/25 07:37:05;;;;;;;13.80;7.30;;;;;;;2.13;93.38;98803.35;108178;1253;71958;-66
2023/11/25 07:39:34;;;;;;;12.20;7.20;;;;;;;2.18;93.10;98804.14;108092;1254;71510;-65
2023/11/25 07:42:04;;;;;;;9.60;5.50;;;;;;;2.21;92.18;98811.23;108158;1253;61898;-67
2023/11/25 07:44:32;;;;;;;10.20;6.40;;;;;;;2.23;91.65;98817.06;108111;1253;60341;-66
2023/11/25 07:47:01;;;;;;;13.30;6.40;;;;;;;2.24;91.06;98820.56;108197;1253;75042;-66
2023/11/25 07:49:29;;;;;;;10.90;6.10;;;;;;;2.25;90.57;98832.48;108066;1254;72798;-66
2023/11/25 07:51:58;;;;;;;10.90;6.30;;;;;;;2.29;90.14;98848.97;108007;1254;72760;-66
2023/11/25 07:54:26;;;;;;;12.90;6.60;;;;;;;2.36;89.96;98851.05;108114;1254;59226;-68
2023/11/25 07:57:03;;;;;;;14.60;6.50;;;;;;;2.43;89.46;98843.40;108099;1254;60654;-67
2023/11/25 07:59:31;;;;;;;12.00;6.60;;;;;;;2.46;88.82;98841.31;108180;1258;74108;-67
2023/11/25 08:01:59;;;;;;;14.50;6.90;;;;;;;2.49;88.11;98844.63;108170;1254;73353;-67
2023/11/25 08:04:26;;;;;;;10.60;6.90;;;;;;;2.48;87.03;98845.61;108106;1254;71250;-67
2023/11/25 08:06:54;;;;;;;10.20;6.00;;;;;;;2.44;85.25;98843.13;108090;1254;60869;-67
2023/11/25 08:09:23;;;;;;;12.00;6.30;;;;;;;2.41;84.32;98846.26;108022;1254;60315;-67
2023/11/25 08:12:08;;;;;;;11.80;6.00;;;;;;;2.39;83.37;98844.92;108128;1254;73836;-67
2023/11/25 08:14:50;;;;;;;10.70;6.00;;;;;;;2.42;82.85;98839.10;108226;1254;73403;-65
2023/11/25 08:17:31;;;;;;;10.20;6.40;;;;;;;2.50;82.66;98834.52;108106;1254;72428;-66
2023/11/25 08:19:59;;;;;;;9.70;5.70;;;;;;;2.61;82.61;98828.30;108092;1254;60418;-67
2023/11/25 08:22:27;;;;;;;10.50;5.60;;;;;;;2.69;82.05;98825.65;108056;1254;60221;-64
2023/11/25 08:24:57;;;;;;;10.10;6.10;;;;;;;2.72;80.67;98823.48;108122;1253;72663;-66
2023/11/25 08:27:25;;;;;;;11.70;6.20;;;;;;;2.76;80.08;98812.98;108118;1254;72835;-66
2023/11/25 08:29:52;;;;;;;11.10;6.20;;;;;;;2.86;79.78;98812.65;108090;1254;71447;-66
2023/11/25 08:32:21;;;;;;;10.70;6.00;;;;;;;2.98;79.48;98812.29;108108;1254;60284;-67
2023/11/25 08:34:50;;;;;;;9.40;5.60;;;;;;;3.11;79.20;98817.36;108191;1253;60347;-66
2023/11/25 08:37:24;;;;;;;10.40;6.10;;;;;;;3.22;78.50;98811.45;108152;1254;73919;-66
2023/11/25 08:39:52;;;;;;;10.60;5.90;;;;;;;3.31;77.74;98810.77;108054;1254;72010;-66
2023/11/25 08:42:24;;;;;;;11.50;7.60;;;;;;;3.36;76.25;98814.98;107969;1256;73440;-66
2023/11/25 08:44:52;;;;;;;12.70;6.90;;;;;;;3.37;74.81;98819.42;107997;1254;59647;-66
2023/11/25 08:47:20;;;;;;;9.60;5.10;;;;;;;3.39;74.17;98815.59;108231;1253;60287;-67
2023/11/25 08:49:49;;;;;;;11.90;5.80;;;;;;;3.44;73.39;98805.08;108126;1254;73951;-66
2023/11/25 08:52:16;;;;;;;9.90;5.40;;;;;;;3.48;72.52;98799.77;108140;1254;71599;-67
2023/11/25 08:54:48;;;;;;;9.30;5.00;;;;;;;3.53;71.86;98791.50;108126;1257;71378;-66
2023/11/25 08:57:20;;;;;;;9.40;5.30;;;;;;;3.58;71.49;98793.45;108202;1254;60432;-66
2023/11/25 08:59:48;;;;;;;9.40;5.20;;;;;;;3.66;71.14;98792.02;108086;1254;60447;-66
2023/11/25 09:02:21;;;;;;;9.20;5.50;;;;;;;3.74;70.81;98787.52;108207;1254;72594;-66
2023/11/25 09:04:50;;;;;;;9.60;4.80;;;;;;;3.81;69.87;98789.95;108167;1254;70621;-67
2023/11/25 09:07:33;;;;;;;11.10;5.90;;;;;;;3.80;68.57;98788.72;108045;1256;72049;-65
2023/11/25 09:10:05;;;;;;;10.10;5.10;;;;;;;3.73;67.66;98786.31;107962;1254;60453;-66
2023/11/25 09:12:33;;;;;;;9.40;5.00;;;;;;;3.67;67.18;98777.45;108076;1254;59732;-67
2023/11/25 09:15:03;;;;;;;8.20;4.80;;;;;;;3.68;67.30;98771.95;108246;1252;73762;-65
2023/11/25 09:17:32;;;;;;;9.30;5.50;;;;;;;3.72;67.17;98763.38;108120;1259;73949;-66
2023/11/25 09:20:00;;;;;;;9.30;4.90;;;;;;;3.75;66.66;98765.03;108123;1257;73209;-67
2023/11/25 09:22:28;;;;;;;11.30;5.20;;;;;;;3.76;66.28;98771.06;108015;1254;60331;-66
2023/11/25 09:24:55;;;;;;;9.60;5.20;;;;;;;3.81;66.33;98783.61;108132;1254;60163;-65
2023/11/25 09:27:23;;;;;;;11.30;6.00;;;;;;;3.89;66.03;98793.63;108068;1253;74010;-67
2023/11/25 09:29:51;;;;;;;10.20;5.60;;;;;;;3.94;65.69;98794.73;108055;1253;71432;-67
2023/11/25 09:32:28;;;;;;;8.10;4.60;;;;;;;3.97;65.41;98796.21;108027;1257;72721;-67
2023/11/25 09:35:17;;;;;;;7.20;4.50;;;;;;;4.03;65.17;98792.17;108410;1254;60394;-67
2023/11/25 09:37:48;;;;;;;9.60;4.90;;;;;;;4.08;64.75;98791.10;108156;1254;60290;-66
2023/11/25 09:40:17;;;;;;;8.20;4.80;;;;;;;4.08;64.42;98798.48;108201;1254;73900;-67
2023/11/25 09:42:46;;;;;;;9.40;5.00;;;;;;;4.10;64.37;98801.40;108225;1254;72818;-66
2023/11/25 09:45:15;;;;;;;9.60;4.90;;;;;;;4.17;64.34;98806.02;108181;1253;71393;-68
2023/11/25 09:47:43;;;;;;;9.10;5.00;;;;;;;4.21;64.26;98806.63;108102;1255;60184;-67
2023/11/25 09:50:16;;;;;;;10.60;5.10;;;;;;;4.20;64.00;98812.70;108084;1254;60040;-66
2023/11/25 09:52:51;;;;;;;7.30;4.00;;;;;;;4.18;63.79;98821.79;108134;1254;72609;-68
2023/11/25 09:55:22;;;;;;;8.50;4.80;;;;;;;4.20;63.63;98828.81;108040;1254;71657;-67
2023/11/25 09:57:58;;;;;;;8.40;4.60;;;;;;;4.24;63.75;98836.66;108051;1259;71085;-66
2023/11/25 10:00:27;;;;;;;7.90;4.40;;;;;;;4.31;63.50;98835.44;108027;1254;59602;-67
2023/11/25 10:02:55;;;;;;;8.10;4.70;;;;;;;4.33;63.33;98827.81;108066;1254;60364;-66
2023/11/25 10:05:23;;;;;;;8.80;4.90;;;;;;;4.38;63.19;98819.70;108034;1254;72656;-67
2023/11/25 10:07:51;;;;;;;7.60;4.50;;;;;;;4.38;62.62;98812.98;108068;1254;73774;-67
2023/11/25 10:10:23;;;;;;;8.60;4.70;;;;;;;4.36;62.26;98808.90;107991;1257;71518;-67
2023/11/25 10:12:52;;;;;;;8.50;4.60;;;;;;;4.35;62.12;98807.64;108171;1257;60416;-67
2023/11/25 10:15:21;;;;;;;6.70;4.60;;;;;;;4.39;62.00;98803.27;108188;1254;60883;-66
2023/11/25 10:17:49;;;;;;;7.70;4.30;;;;;;;4.44;62.02;98803.48;108245;1254;74152;-67
2023/11/25 10:20:19;;;;;;;8.40;4.20;;;;;;;4.56;62.15;98802.52;108176;1259;71463;-67
2023/11/25 10:22:56;;;;;;;7.70;4.30;;;;;;;4.65;61.84;98801.17;108225;1254;72873;-67
2023/11/25 10:25:30;;;;;;;8.70;4.00;;;;;;;4.71;61.35;98801.19;108136;1257;60335;-66
2023/11/25 10:27:58;;;;;;;7.70;4.10;;;;;;;4.69;60.64;98796.90;108167;1253;60416;-67
2023/11/25 10:30:26;;;;;;;8.40;4.00;;;;;;;4.67;60.58;98794.19;108166;1254;73936;-67
2023/11/25 10:32:56;;;;;;;6.50;4.10;;;;;;;4.71;60.62;98796.58;108207;1259;71583;-67
2023/11/25 10:35:24;;;;;;;9.00;4.40;;;;;;;4.78;60.61;98799.92;107974;1256;72704;-67
2023/11/25 10:37:52;;;;;;;9.70;4.40;;;;;;;4.82;60.40;98799.73;108154;1254;59283;-65
2023/11/25 10:40:21;;;;;;;7.50;3.90;;;;;;;4.86;60.28;98796.25;108143;1255;60370;-68
2023/11/25 10:42:50;;;;;;;8.00;3.90;;;;;;;4.89;60.28;98797.45;108202;1253;73837;-67
2023/11/25 10:45:18;;;;;;;8.10;4.20;;;;;;;4.93;60.20;98801.44;108122;1259;71309;-66
2023/11/25 10:47:47;;;;;;;6.50;4.10;;;;;;;4.98;60.23;98807.85;108105;1259;70096;-65
2023/11/25 10:50:15;;;;;;;7.50;4.30;;;;;;;5.02;60.14;98813.14;108006;1256;60423;-66
2023/11/25 10:52:44;;;;;;;7.50;4.10;;;;;;;5.04;59.99;98814.03;108066;1253;59696;-66
2023/11/25 10:55:12;;;;;;;8.00;4.30;;;;;;;5.09;59.90;98813.26;108154;1257;72565;-68
2023/11/25 11:57:01;;;;;;;12.40;6.30;;;;;;;4.91;61.23;98838.00;108109;1254;73575;-67
2023/11/25 12:00:00;;;;;;;12.30;7.30;;;;;;;4.91;61.69;98836.20;108121;1258;60552;-66
2023/11/25 12:02:31;;;;;;;12.80;6.70;;;;;;;4.93;61.95;98831.49;108183;1254;60273;-68
2023/11/25 13:04:18;;;;;;;12.80;7.60;;;;;;;4.24;64.75;98845.86;108217;1260;72527;-65
2023/11/25 13:06:49;;;;;;;17.00;8.80;;;;;;;4.15;64.90;98852.64;108126;1255;72705;-66
2023/11/25 13:09:19;;;;;;;18.70;11.00;;;;;;;4.05;65.01;98852.99;107986;1260;60200;-67
2023/11/25 13:11:47;;;;;;;17.90;10.00;;;;;;;3.99;65.24;98849.31;108130;1255;60526;-67
2023/11/25 14:13:33;;;;;;;18.10;10.00;;;;;;;2.86;70.70;98851.15;108093;1254;71535;-67
2023/11/25 14:16:01;;;;;;;15.90;10.10;;;;;;;2.82;70.80;98855.05;107919;1256;72194;-67
2023/11/25 14:18:29;;;;;;;18.90;10.50;;;;;;;2.78;70.93;98852.96;108041;1252;60396;-67
2023/11/25 14:20:57;;;;;;;17.70;10.50;;;;;;;2.73;71.08;98848.59;108171;1254;60395;-67
2023/11/25 14:23:24;;;;;;;14.80;10.30;;;;;;;2.69;71.11;98851.64;108144;1253;72576;-65
2023/11/25 14:25:52;;;;;;;16.50;10.10;;;;;;;2.66;71.48;98855.79;108107;1260;72836;-66
2023/11/25 14:28:22;;;;;;;17.30;10.40;;;;;;;2.62;71.70;98859.21;108015;1259;70774;-67
2023/11/25 18:29:57;;;;;;;57.40;37.40;;;;;;;1.06;87.93;98901.88;107990;1253;61037;-64
2023/11/25 18:32:25;;;;;;;56.80;37.10;;;;;;;1.03;87.41;98901.71;108012;1253;60591;-64
2023/11/25 18:34:53;;;;;;;52.60;36.80;;;;;;;1.00;87.41;98907.85;107949;1253;74005;-64